sensor_id;sensor_type;location;lat;lon;timestamp;P1;durP1;ratioP1;P2;durP2;ratioP2
73474;SDS011;61711;52.266;10.542;2022-08-20T00:00:58;11.68;;;9.95;;
73474;SDS011;61711;52.266;10.542;2022-08-20T00:03:29;12.20;;;10.25;;
73474;SDS011;61711;52.266;10.542;2022-08-20T00:05:57;12.60;;;10.70;;
73474;SDS011;61711;52.266;10.542;2022-08-20T00:08:23;12.95;;;10.55;;
73474;SDS011;61711;52.266;10.542;2022-08-20T00:10:50;11.55;;;10.35;;
73474;SDS011;61711;52.266;10.542;2022-08-20T00:13:21;14.13;;;10.82;;
73474;SDS011;61711;52.266;10.542;2022-08-20T00:15:47;14.55;;;11.00;;
73474;SDS011;61711;52.266;10.542;2022-08-20T00:18:13;12.90;;;10.55;;
73474;SDS011;61711;52.266;10.542;2022-08-20T00:20:43;12.55;;;10.63;;
73474;SDS011;61711;52.266;10.542;2022-08-20T00:23:09;14.80;;;10.80;;
73474;SDS011;61711;52.266;10.542;2022-08-20T00:25:35;13.25;;;11.38;;
73474;SDS011;61711;52.266;10.542;2022-08-20T00:28:02;13.40;;;11.63;;
73474;SDS011;61711;52.266;10.542;2022-08-20T00:30:29;14.45;;;11.55;;
73474;SDS011;61711;52.266;10.542;2022-08-20T00:33:00;13.95;;;11.20;;
73474;SDS011;61711;52.266;10.542;2022-08-20T00:35:27;13.88;;;11.32;;
73474;SDS011;61711;52.266;10.542;2022-08-20T00:37:54;13.65;;;11.15;;
73474;SDS011;61711;52.266;10.542;2022-08-20T00:40:26;13.02;;;10.70;;
73474;SDS011;61711;52.266;10.542;2022-08-20T00:42:53;14.60;;;10.93;;
73474;SDS011;61711;52.266;10.542;2022-08-20T00:45:22;12.80;;;11.10;;
73474;SDS011;61711;52.266;10.542;2022-08-20T00:47:48;13.30;;;11.50;;
73474;SDS011;61711;52.266;10.542;2022-08-20T00:50:17;13.73;;;11.27;;
73474;SDS011;61711;52.266;10.542;2022-08-20T00:52:44;16.15;;;11.88;;
73474;SDS011;61711;52.266;10.542;2022-08-20T00:55:12;15.40;;;11.27;;
73474;SDS011;61711;52.266;10.542;2022-08-20T00:57:39;13.20;;;10.57;;
73474;SDS011;61711;52.266;10.542;2022-08-20T01:00:10;14.05;;;10.90;;
73474;SDS011;61711;52.266;10.542;2022-08-20T01:02:37;12.55;;;10.80;;
73474;SDS011;61711;52.266;10.542;2022-08-20T01:05:05;13.73;;;11.73;;
73474;SDS011;61711;52.266;10.542;2022-08-20T01:07:33;14.32;;;11.35;;
73474;SDS011;61711;52.266;10.542;2022-08-20T01:10:02;14.25;;;10.98;;
73474;SDS011;61711;52.266;10.542;2022-08-20T01:12:29;14.60;;;11.60;;
73474;SDS011;61711;52.266;10.542;2022-08-20T01:14:57;13.32;;;11.10;;
73474;SDS011;61711;52.266;10.542;2022-08-20T01:17:24;15.05;;;11.32;;
73474;SDS011;61711;52.266;10.542;2022-08-20T01:19:54;12.73;;;10.90;;
73474;SDS011;61711;52.266;10.542;2022-08-20T01:22:34;11.98;;;10.68;;
73474;SDS011;61711;52.266;10.542;2022-08-20T01:25:25;15.35;;;11.48;;
73474;SDS011;61711;52.266;10.542;2022-08-20T01:27:53;12.43;;;10.68;;
73474;SDS011;61711;52.266;10.542;2022-08-20T01:30:19;13.90;;;12.30;;
73474;SDS011;61711;52.266;10.542;2022-08-20T01:32:45;13.10;;;11.20;;
73474;SDS011;61711;52.266;10.542;2022-08-20T01:35:11;14.57;;;11.85;;
73474;SDS011;61711;52.266;10.542;2022-08-20T01:37:42;15.25;;;12.20;;
73474;SDS011;61711;52.266;10.542;2022-08-20T01:40:08;15.25;;;12.25;;
73474;SDS011;61711;52.266;10.542;2022-08-20T01:42:40;14.32;;;11.45;;
73474;SDS011;61711;52.266;10.542;2022-08-20T01:45:09;16.50;;;11.88;;
73474;SDS011;61711;52.266;10.542;2022-08-20T01:47:35;13.57;;;11.75;;
73474;SDS011;61711;52.266;10.542;2022-08-20T01:50:03;13.35;;;11.63;;
73474;SDS011;61711;52.266;10.542;2022-08-20T01:55:26;14.05;;;11.10;;
73474;SDS011;61711;52.266;10.542;2022-08-20T01:57:52;12.80;;;11.23;;
73474;SDS011;61711;52.266;10.542;2022-08-20T02:00:20;13.77;;;11.45;;
73474;SDS011;61711;52.266;10.542;2022-08-20T02:02:46;13.00;;;10.93;;
73474;SDS011;61711;52.266;10.542;2022-08-20T02:05:13;14.75;;;11.90;;
73474;SDS011;61711;52.266;10.542;2022-08-20T02:07:39;14.00;;;12.48;;
73474;SDS011;61711;52.266;10.542;2022-08-20T02:10:07;15.82;;;11.48;;
73474;SDS011;61711;52.266;10.542;2022-08-20T02:12:33;15.18;;;12.38;;
73474;SDS011;61711;52.266;10.542;2022-08-20T02:14:59;15.15;;;12.30;;
73474;SDS011;61711;52.266;10.542;2022-08-20T02:17:26;16.02;;;11.82;;
73474;SDS011;61711;52.266;10.542;2022-08-20T02:20:05;14.32;;;11.98;;
73474;SDS011;61711;52.266;10.542;2022-08-20T02:22:43;14.27;;;11.88;;
73474;SDS011;61711;52.266;10.542;2022-08-20T02:25:10;14.63;;;12.77;;
73474;SDS011;61711;52.266;10.542;2022-08-20T02:27:37;15.23;;;12.88;;
73474;SDS011;61711;52.266;10.542;2022-08-20T02:30:05;16.92;;;12.93;;
73474;SDS011;61711;52.266;10.542;2022-08-20T02:32:35;16.70;;;12.98;;
73474;SDS011;61711;52.266;10.542;2022-08-20T02:35:02;16.48;;;12.75;;
73474;SDS011;61711;52.266;10.542;2022-08-20T02:37:29;15.00;;;12.98;;
73474;SDS011;61711;52.266;10.542;2022-08-20T02:39:55;15.48;;;12.93;;
73474;SDS011;61711;52.266;10.542;2022-08-20T02:42:21;15.60;;;12.15;;
73474;SDS011;61711;52.266;10.542;2022-08-20T02:44:47;14.70;;;12.45;;
73474;SDS011;61711;52.266;10.542;2022-08-20T02:47:13;15.48;;;12.73;;
73474;SDS011;61711;52.266;10.542;2022-08-20T02:49:41;16.35;;;12.80;;
73474;SDS011;61711;52.266;10.542;2022-08-20T02:52:07;15.45;;;12.55;;
73474;SDS011;61711;52.266;10.542;2022-08-20T02:54:34;16.85;;;13.07;;
73474;SDS011;61711;52.266;10.542;2022-08-20T02:57:01;17.63;;;13.98;;
73474;SDS011;61711;52.266;10.542;2022-08-20T02:59:28;18.98;;;13.70;;
73474;SDS011;61711;52.266;10.542;2022-08-20T03:01:54;17.20;;;13.27;;
73474;SDS011;61711;52.266;10.542;2022-08-20T03:04:20;13.43;;;12.02;;
73474;SDS011;61711;52.266;10.542;2022-08-20T03:06:46;13.63;;;11.85;;
73474;SDS011;61711;52.266;10.542;2022-08-20T03:09:12;16.05;;;11.63;;
73474;SDS011;61711;52.266;10.542;2022-08-20T03:11:38;13.68;;;11.88;;
73474;SDS011;61711;52.266;10.542;2022-08-20T03:14:05;13.15;;;11.75;;
73474;SDS011;61711;52.266;10.542;2022-08-20T03:16:31;14.25;;;11.30;;
73474;SDS011;61711;52.266;10.542;2022-08-20T03:18:57;16.50;;;11.98;;
73474;SDS011;61711;52.266;10.542;2022-08-20T03:21:23;14.52;;;11.55;;
73474;SDS011;61711;52.266;10.542;2022-08-20T03:23:50;14.88;;;12.35;;
73474;SDS011;61711;52.266;10.542;2022-08-20T03:26:16;14.55;;;11.65;;
73474;SDS011;61711;52.266;10.542;2022-08-20T03:28:42;14.85;;;12.15;;
73474;SDS011;61711;52.266;10.542;2022-08-20T03:31:09;12.93;;;11.40;;
73474;SDS011;61711;52.266;10.542;2022-08-20T03:33:35;13.23;;;11.75;;
73474;SDS011;61711;52.266;10.542;2022-08-20T03:36:03;14.38;;;11.45;;
73474;SDS011;61711;52.266;10.542;2022-08-20T03:38:29;16.85;;;11.57;;
73474;SDS011;61711;52.266;10.542;2022-08-20T03:40:55;14.50;;;11.85;;
73474;SDS011;61711;52.266;10.542;2022-08-20T03:43:21;15.18;;;11.52;;
73474;SDS011;61711;52.266;10.542;2022-08-20T03:45:48;14.43;;;12.10;;
73474;SDS011;61711;52.266;10.542;2022-08-20T03:48:16;15.00;;;11.95;;
73474;SDS011;61711;52.266;10.542;2022-08-20T03:50:42;16.00;;;11.93;;
73474;SDS011;61711;52.266;10.542;2022-08-20T03:53:09;13.65;;;12.20;;
73474;SDS011;61711;52.266;10.542;2022-08-20T03:55:36;15.38;;;12.35;;
73474;SDS011;61711;52.266;10.542;2022-08-20T03:58:04;15.05;;;11.90;;
73474;SDS011;61711;52.266;10.542;2022-08-20T04:00:35;14.77;;;11.82;;
73474;SDS011;61711;52.266;10.542;2022-08-20T04:03:02;14.48;;;12.10;;
73474;SDS011;61711;52.266;10.542;2022-08-20T04:05:29;13.73;;;12.13;;
73474;SDS011;61711;52.266;10.542;2022-08-20T04:07:56;15.40;;;11.70;;
73474;SDS011;61711;52.266;10.542;2022-08-20T04:10:23;15.00;;;12.32;;
73474;SDS011;61711;52.266;10.542;2022-08-20T04:12:49;15.13;;;12.13;;
73474;SDS011;61711;52.266;10.542;2022-08-20T04:15:16;14.77;;;11.52;;
73474;SDS011;61711;52.266;10.542;2022-08-20T04:17:44;17.27;;;12.73;;
73474;SDS011;61711;52.266;10.542;2022-08-20T04:20:11;15.73;;;12.98;;
73474;SDS011;61711;52.266;10.542;2022-08-20T04:22:37;17.15;;;12.98;;
73474;SDS011;61711;52.266;10.542;2022-08-20T04:25:04;16.02;;;13.57;;
73474;SDS011;61711;52.266;10.542;2022-08-20T04:27:33;15.43;;;13.13;;
73474;SDS011;61711;52.266;10.542;2022-08-20T04:29:59;16.98;;;13.55;;
73474;SDS011;61711;52.266;10.542;2022-08-20T04:32:27;18.20;;;14.38;;
73474;SDS011;61711;52.266;10.542;2022-08-20T04:34:54;17.23;;;13.85;;
73474;SDS011;61711;52.266;10.542;2022-08-20T04:37:20;15.73;;;12.88;;
73474;SDS011;61711;52.266;10.542;2022-08-20T04:39:47;14.75;;;12.52;;
73474;SDS011;61711;52.266;10.542;2022-08-20T04:42:34;14.50;;;12.02;;
73474;SDS011;61711;52.266;10.542;2022-08-20T04:45:00;15.25;;;11.93;;
73474;SDS011;61711;52.266;10.542;2022-08-20T04:47:26;16.30;;;12.40;;
73474;SDS011;61711;52.266;10.542;2022-08-20T04:49:52;15.95;;;11.90;;
73474;SDS011;61711;52.266;10.542;2022-08-20T04:52:24;15.52;;;11.98;;
73474;SDS011;61711;52.266;10.542;2022-08-20T04:54:50;14.98;;;12.45;;
73474;SDS011;61711;52.266;10.542;2022-08-20T04:57:17;14.32;;;12.18;;
73474;SDS011;61711;52.266;10.542;2022-08-20T04:59:43;15.48;;;12.05;;
73474;SDS011;61711;52.266;10.542;2022-08-20T05:02:09;13.65;;;11.90;;
73474;SDS011;61711;52.266;10.542;2022-08-20T05:04:36;15.18;;;12.52;;
73474;SDS011;61711;52.266;10.542;2022-08-20T05:07:02;18.88;;;13.30;;
73474;SDS011;61711;52.266;10.542;2022-08-20T05:09:28;18.08;;;13.82;;
73474;SDS011;61711;52.266;10.542;2022-08-20T05:11:56;18.98;;;15.10;;
73474;SDS011;61711;52.266;10.542;2022-08-20T05:14:22;18.23;;;14.88;;
73474;SDS011;61711;52.266;10.542;2022-08-20T05:16:48;18.08;;;14.25;;
73474;SDS011;61711;52.266;10.542;2022-08-20T05:19:17;17.65;;;14.07;;
73474;SDS011;61711;52.266;10.542;2022-08-20T05:21:43;19.30;;;15.65;;
73474;SDS011;61711;52.266;10.542;2022-08-20T05:24:09;21.30;;;16.05;;
73474;SDS011;61711;52.266;10.542;2022-08-20T05:26:36;20.67;;;15.70;;
73474;SDS011;61711;52.266;10.542;2022-08-20T05:29:02;21.27;;;15.95;;
73474;SDS011;61711;52.266;10.542;2022-08-20T05:31:29;18.65;;;15.57;;
73474;SDS011;61711;52.266;10.542;2022-08-20T05:33:56;20.48;;;16.17;;
73474;SDS011;61711;52.266;10.542;2022-08-20T05:36:23;20.33;;;15.70;;
73474;SDS011;61711;52.266;10.542;2022-08-20T05:38:49;21.88;;;15.95;;
73474;SDS011;61711;52.266;10.542;2022-08-20T05:41:16;19.85;;;15.13;;
73474;SDS011;61711;52.266;10.542;2022-08-20T05:43:42;22.27;;;16.17;;
73474;SDS011;61711;52.266;10.542;2022-08-20T05:46:08;22.92;;;16.70;;
73474;SDS011;61711;52.266;10.542;2022-08-20T05:48:34;21.05;;;16.77;;
73474;SDS011;61711;52.266;10.542;2022-08-20T05:51:00;23.17;;;16.42;;
73474;SDS011;61711;52.266;10.542;2022-08-20T05:53:26;23.00;;;16.60;;
73474;SDS011;61711;52.266;10.542;2022-08-20T05:55:52;21.25;;;16.20;;
73474;SDS011;61711;52.266;10.542;2022-08-20T05:58:23;22.65;;;16.65;;
73474;SDS011;61711;52.266;10.542;2022-08-20T06:00:49;23.85;;;16.60;;
73474;SDS011;61711;52.266;10.542;2022-08-20T06:03:16;22.20;;;16.77;;
73474;SDS011;61711;52.266;10.542;2022-08-20T06:06:01;22.80;;;16.15;;
73474;SDS011;61711;52.266;10.542;2022-08-20T06:08:28;22.25;;;15.68;;
73474;SDS011;61711;52.266;10.542;2022-08-20T06:10:54;24.15;;;16.58;;
73474;SDS011;61711;52.266;10.542;2022-08-20T06:13:21;20.75;;;15.77;;
73474;SDS011;61711;52.266;10.542;2022-08-20T06:15:47;21.23;;;15.65;;
73474;SDS011;61711;52.266;10.542;2022-08-20T06:18:13;19.40;;;15.15;;
73474;SDS011;61711;52.266;10.542;2022-08-20T06:20:39;19.30;;;15.25;;
73474;SDS011;61711;52.266;10.542;2022-08-20T06:23:06;19.67;;;16.15;;
73474;SDS011;61711;52.266;10.542;2022-08-20T06:25:32;18.15;;;14.80;;
73474;SDS011;61711;52.266;10.542;2022-08-20T06:27:59;20.13;;;15.63;;
73474;SDS011;61711;52.266;10.542;2022-08-20T06:30:25;19.23;;;14.18;;
73474;SDS011;61711;52.266;10.542;2022-08-20T06:32:51;17.38;;;14.32;;
73474;SDS011;61711;52.266;10.542;2022-08-20T06:35:17;19.48;;;13.52;;
73474;SDS011;61711;52.266;10.542;2022-08-20T06:37:43;18.75;;;13.02;;
73474;SDS011;61711;52.266;10.542;2022-08-20T06:42:36;17.85;;;13.63;;
73474;SDS011;61711;52.266;10.542;2022-08-20T06:45:08;17.95;;;12.68;;
73474;SDS011;61711;52.266;10.542;2022-08-20T06:47:35;15.90;;;12.80;;
73474;SDS011;61711;52.266;10.542;2022-08-20T06:50:05;15.00;;;12.32;;
73474;SDS011;61711;52.266;10.542;2022-08-20T06:52:32;14.45;;;12.20;;
73474;SDS011;61711;52.266;10.542;2022-08-20T06:54:58;14.13;;;11.68;;
73474;SDS011;61711;52.266;10.542;2022-08-20T06:57:24;16.42;;;12.25;;
73474;SDS011;61711;52.266;10.542;2022-08-20T06:59:53;15.00;;;11.93;;
73474;SDS011;61711;52.266;10.542;2022-08-20T07:02:19;14.57;;;12.15;;
73474;SDS011;61711;52.266;10.542;2022-08-20T07:04:45;14.77;;;12.02;;
73474;SDS011;61711;52.266;10.542;2022-08-20T07:07:15;15.32;;;11.70;;
73474;SDS011;61711;52.266;10.542;2022-08-20T07:09:42;14.68;;;11.73;;
73474;SDS011;61711;52.266;10.542;2022-08-20T07:12:08;14.63;;;12.02;;
73474;SDS011;61711;52.266;10.542;2022-08-20T07:14:34;13.80;;;11.73;;
73474;SDS011;61711;52.266;10.542;2022-08-20T07:17:04;14.77;;;11.18;;
73474;SDS011;61711;52.266;10.542;2022-08-20T07:19:30;14.95;;;11.00;;
73474;SDS011;61711;52.266;10.542;2022-08-20T07:21:57;13.85;;;11.30;;
73474;SDS011;61711;52.266;10.542;2022-08-20T07:24:23;14.68;;;12.07;;
73474;SDS011;61711;52.266;10.542;2022-08-20T07:26:49;13.32;;;10.80;;
73474;SDS011;61711;52.266;10.542;2022-08-20T07:29:17;15.07;;;11.68;;
73474;SDS011;61711;52.266;10.542;2022-08-20T07:31:43;14.68;;;11.68;;
73474;SDS011;61711;52.266;10.542;2022-08-20T07:34:28;21.17;;;16.08;;
73474;SDS011;61711;52.266;10.542;2022-08-20T07:36:58;27.52;;;20.48;;
73474;SDS011;61711;52.266;10.542;2022-08-20T07:39:24;18.13;;;13.77;;
73474;SDS011;61711;52.266;10.542;2022-08-20T07:41:50;17.70;;;12.40;;
73474;SDS011;61711;52.266;10.542;2022-08-20T07:44:27;17.13;;;12.23;;
73474;SDS011;61711;52.266;10.542;2022-08-20T07:46:54;14.88;;;11.80;;
73474;SDS011;61711;52.266;10.542;2022-08-20T07:49:20;14.00;;;11.13;;
73474;SDS011;61711;52.266;10.542;2022-08-20T07:51:46;15.90;;;12.27;;
73474;SDS011;61711;52.266;10.542;2022-08-20T07:54:12;15.98;;;12.00;;
73474;SDS011;61711;52.266;10.542;2022-08-20T07:56:38;18.02;;;12.10;;
73474;SDS011;61711;52.266;10.542;2022-08-20T07:59:04;17.95;;;12.38;;
73474;SDS011;61711;52.266;10.542;2022-08-20T08:01:30;18.73;;;13.57;;
73474;SDS011;61711;52.266;10.542;2022-08-20T08:03:57;17.48;;;12.43;;
73474;SDS011;61711;52.266;10.542;2022-08-20T08:06:25;19.25;;;12.55;;
73474;SDS011;61711;52.266;10.542;2022-08-20T08:08:51;18.65;;;12.63;;
73474;SDS011;61711;52.266;10.542;2022-08-20T08:11:18;18.13;;;12.27;;
73474;SDS011;61711;52.266;10.542;2022-08-20T08:13:44;17.02;;;13.32;;
73474;SDS011;61711;52.266;10.542;2022-08-20T08:16:11;16.52;;;12.95;;
73474;SDS011;61711;52.266;10.542;2022-08-20T08:18:41;17.58;;;13.82;;
73474;SDS011;61711;52.266;10.542;2022-08-20T08:21:07;16.20;;;13.57;;
73474;SDS011;61711;52.266;10.542;2022-08-20T08:23:37;18.15;;;13.60;;
73474;SDS011;61711;52.266;10.542;2022-08-20T08:26:04;18.05;;;13.52;;
73474;SDS011;61711;52.266;10.542;2022-08-20T08:28:30;18.77;;;13.07;;
73474;SDS011;61711;52.266;10.542;2022-08-20T08:30:56;21.02;;;13.15;;
73474;SDS011;61711;52.266;10.542;2022-08-20T08:33:27;17.20;;;13.18;;
73474;SDS011;61711;52.266;10.542;2022-08-20T08:35:57;16.05;;;13.15;;
73474;SDS011;61711;52.266;10.542;2022-08-20T08:38:23;16.73;;;13.07;;
73474;SDS011;61711;52.266;10.542;2022-08-20T08:40:51;15.65;;;11.63;;
73474;SDS011;61711;52.266;10.542;2022-08-20T08:43:18;14.63;;;11.57;;
73474;SDS011;61711;52.266;10.542;2022-08-20T08:45:46;14.93;;;11.80;;
73474;SDS011;61711;52.266;10.542;2022-08-20T08:48:16;14.65;;;11.25;;
73474;SDS011;61711;52.266;10.542;2022-08-20T08:50:46;14.52;;;11.77;;
73474;SDS011;61711;52.266;10.542;2022-08-20T08:53:18;14.07;;;11.73;;
73474;SDS011;61711;52.266;10.542;2022-08-20T08:55:45;15.70;;;11.15;;
73474;SDS011;61711;52.266;10.542;2022-08-20T08:58:11;19.05;;;13.10;;
73474;SDS011;61711;52.266;10.542;2022-08-20T09:00:37;13.40;;;11.02;;
73474;SDS011;61711;52.266;10.542;2022-08-20T09:03:07;18.73;;;12.20;;
73474;SDS011;61711;52.266;10.542;2022-08-20T09:05:50;16.20;;;11.55;;
73474;SDS011;61711;52.266;10.542;2022-08-20T09:08:18;14.07;;;10.48;;
73474;SDS011;61711;52.266;10.542;2022-08-20T09:10:45;14.57;;;9.98;;
73474;SDS011;61711;52.266;10.542;2022-08-20T09:13:11;13.57;;;11.13;;
73474;SDS011;61711;52.266;10.542;2022-08-20T09:15:37;13.10;;;10.60;;
73474;SDS011;61711;52.266;10.542;2022-08-20T09:18:03;14.90;;;11.30;;
73474;SDS011;61711;52.266;10.542;2022-08-20T09:20:30;14.68;;;11.63;;
73474;SDS011;61711;52.266;10.542;2022-08-20T09:22:56;14.48;;;10.88;;
73474;SDS011;61711;52.266;10.542;2022-08-20T09:25:22;15.40;;;11.35;;
73474;SDS011;61711;52.266;10.542;2022-08-20T09:27:48;14.30;;;11.95;;
73474;SDS011;61711;52.266;10.542;2022-08-20T09:30:14;18.58;;;11.75;;
73474;SDS011;61711;52.266;10.542;2022-08-20T09:32:41;14.45;;;11.18;;
73474;SDS011;61711;52.266;10.542;2022-08-20T09:35:08;14.63;;;11.18;;
73474;SDS011;61711;52.266;10.542;2022-08-20T09:37:34;12.70;;;11.02;;
73474;SDS011;61711;52.266;10.542;2022-08-20T09:40:01;14.13;;;10.68;;
73474;SDS011;61711;52.266;10.542;2022-08-20T09:42:29;14.45;;;11.07;;
73474;SDS011;61711;52.266;10.542;2022-08-20T09:44:55;14.10;;;10.65;;
73474;SDS011;61711;52.266;10.542;2022-08-20T09:47:22;15.43;;;11.20;;
73474;SDS011;61711;52.266;10.542;2022-08-20T09:49:48;13.68;;;10.68;;
73474;SDS011;61711;52.266;10.542;2022-08-20T09:52:19;14.15;;;11.10;;
73474;SDS011;61711;52.266;10.542;2022-08-20T09:54:46;14.05;;;10.30;;
73474;SDS011;61711;52.266;10.542;2022-08-20T09:57:12;13.43;;;10.65;;
73474;SDS011;61711;52.266;10.542;2022-08-20T09:59:39;14.80;;;11.20;;
73474;SDS011;61711;52.266;10.542;2022-08-20T10:02:05;14.60;;;11.18;;
73474;SDS011;61711;52.266;10.542;2022-08-20T10:04:31;13.68;;;10.25;;
73474;SDS011;61711;52.266;10.542;2022-08-20T10:06:57;12.82;;;10.15;;
73474;SDS011;61711;52.266;10.542;2022-08-20T10:09:24;15.98;;;10.32;;
73474;SDS011;61711;52.266;10.542;2022-08-20T10:11:50;13.90;;;10.32;;
73474;SDS011;61711;52.266;10.542;2022-08-20T10:14:16;14.23;;;10.63;;
73474;SDS011;61711;52.266;10.542;2022-08-20T10:16:42;16.85;;;11.57;;
73474;SDS011;61711;52.266;10.542;2022-08-20T10:19:08;13.70;;;10.73;;
73474;SDS011;61711;52.266;10.542;2022-08-20T10:21:34;14.40;;;10.55;;
73474;SDS011;61711;52.266;10.542;2022-08-20T10:24:00;12.90;;;10.82;;
73474;SDS011;61711;52.266;10.542;2022-08-20T10:26:26;13.27;;;10.85;;
73474;SDS011;61711;52.266;10.542;2022-08-20T10:28:52;14.43;;;11.18;;
73474;SDS011;61711;52.266;10.542;2022-08-20T10:31:18;13.50;;;10.98;;
73474;SDS011;61711;52.266;10.542;2022-08-20T10:33:44;13.55;;;11.02;;
73474;SDS011;61711;52.266;10.542;2022-08-20T10:36:12;14.70;;;10.95;;
73474;SDS011;61711;52.266;10.542;2022-08-20T10:38:39;14.45;;;11.38;;
73474;SDS011;61711;52.266;10.542;2022-08-20T10:41:06;14.10;;;11.23;;
73474;SDS011;61711;52.266;10.542;2022-08-20T10:43:32;13.95;;;12.23;;
73474;SDS011;61711;52.266;10.542;2022-08-20T10:45:58;16.60;;;12.00;;
73474;SDS011;61711;52.266;10.542;2022-08-20T10:48:24;16.13;;;12.68;;
73474;SDS011;61711;52.266;10.542;2022-08-20T10:50:50;15.23;;;12.05;;
73474;SDS011;61711;52.266;10.542;2022-08-20T10:53:16;14.48;;;12.07;;
73474;SDS011;61711;52.266;10.542;2022-08-20T10:55:43;15.15;;;12.63;;
73474;SDS011;61711;52.266;10.542;2022-08-20T10:58:09;13.57;;;11.35;;
73474;SDS011;61711;52.266;10.542;2022-08-20T11:00:37;13.70;;;11.68;;
73474;SDS011;61711;52.266;10.542;2022-08-20T11:03:03;14.82;;;12.30;;
73474;SDS011;61711;52.266;10.542;2022-08-20T11:05:29;16.40;;;12.15;;
73474;SDS011;61711;52.266;10.542;2022-08-20T11:07:56;15.63;;;11.30;;
73474;SDS011;61711;52.266;10.542;2022-08-20T11:10:27;17.35;;;11.30;;
73474;SDS011;61711;52.266;10.542;2022-08-20T11:12:53;15.85;;;12.23;;
73474;SDS011;61711;52.266;10.542;2022-08-20T11:15:19;13.70;;;11.75;;
73474;SDS011;61711;52.266;10.542;2022-08-20T11:17:45;14.65;;;11.15;;
73474;SDS011;61711;52.266;10.542;2022-08-20T11:20:13;13.40;;;11.57;;
73474;SDS011;61711;52.266;10.542;2022-08-20T11:22:39;14.18;;;11.23;;
73474;SDS011;61711;52.266;10.542;2022-08-20T11:25:05;15.65;;;12.10;;
73474;SDS011;61711;52.266;10.542;2022-08-20T11:27:33;14.18;;;11.45;;
73474;SDS011;61711;52.266;10.542;2022-08-20T11:29:59;16.30;;;11.13;;
73474;SDS011;61711;52.266;10.542;2022-08-20T11:32:26;16.70;;;12.00;;
73474;SDS011;61711;52.266;10.542;2022-08-20T11:34:52;15.70;;;10.95;;
73474;SDS011;61711;52.266;10.542;2022-08-20T11:37:18;16.35;;;12.90;;
73474;SDS011;61711;52.266;10.542;2022-08-20T11:39:45;15.88;;;11.57;;
73474;SDS011;61711;52.266;10.542;2022-08-20T11:42:11;14.40;;;11.85;;
73474;SDS011;61711;52.266;10.542;2022-08-20T11:44:37;14.95;;;12.35;;
73474;SDS011;61711;52.266;10.542;2022-08-20T11:47:04;14.75;;;12.48;;
73474;SDS011;61711;52.266;10.542;2022-08-20T11:49:31;14.48;;;11.93;;
73474;SDS011;61711;52.266;10.542;2022-08-20T11:51:57;15.02;;;11.20;;
73474;SDS011;61711;52.266;10.542;2022-08-20T11:54:23;15.90;;;12.88;;
73474;SDS011;61711;52.266;10.542;2022-08-20T11:56:52;14.98;;;12.10;;
73474;SDS011;61711;52.266;10.542;2022-08-20T11:59:20;15.00;;;12.25;;
73474;SDS011;61711;52.266;10.542;2022-08-20T12:01:46;17.65;;;11.63;;
73474;SDS011;61711;52.266;10.542;2022-08-20T12:04:12;17.60;;;14.20;;
73474;SDS011;61711;52.266;10.542;2022-08-20T12:06:38;15.43;;;13.68;;
73474;SDS011;61711;52.266;10.542;2022-08-20T12:09:04;16.10;;;14.00;;
73474;SDS011;61711;52.266;10.542;2022-08-20T12:11:30;16.13;;;12.95;;
73474;SDS011;61711;52.266;10.542;2022-08-20T12:13:56;16.23;;;12.95;;
73474;SDS011;61711;52.266;10.542;2022-08-20T12:16:22;16.85;;;13.93;;
73474;SDS011;61711;52.266;10.542;2022-08-20T12:18:48;16.10;;;14.38;;
73474;SDS011;61711;52.266;10.542;2022-08-20T12:21:14;14.85;;;13.27;;
73474;SDS011;61711;52.266;10.542;2022-08-20T12:23:40;16.73;;;13.02;;
73474;SDS011;61711;52.266;10.542;2022-08-20T12:26:06;20.13;;;14.05;;
73474;SDS011;61711;52.266;10.542;2022-08-20T12:28:32;17.38;;;14.38;;
73474;SDS011;61711;52.266;10.542;2022-08-20T12:30:59;15.75;;;13.77;;
73474;SDS011;61711;52.266;10.542;2022-08-20T12:33:25;16.55;;;14.80;;
73474;SDS011;61711;52.266;10.542;2022-08-20T12:35:51;19.17;;;15.15;;
73474;SDS011;61711;52.266;10.542;2022-08-20T12:38:17;19.92;;;15.35;;
73474;SDS011;61711;52.266;10.542;2022-08-20T12:40:43;19.52;;;15.65;;
73474;SDS011;61711;52.266;10.542;2022-08-20T12:43:09;17.55;;;15.43;;
73474;SDS011;61711;52.266;10.542;2022-08-20T12:45:35;16.27;;;14.02;;
73474;SDS011;61711;52.266;10.542;2022-08-20T12:48:06;15.95;;;14.35;;
73474;SDS011;61711;52.266;10.542;2022-08-20T12:50:33;16.65;;;14.95;;
73474;SDS011;61711;52.266;10.542;2022-08-20T12:52:59;19.33;;;15.02;;
73474;SDS011;61711;52.266;10.542;2022-08-20T12:55:26;16.10;;;13.73;;
73474;SDS011;61711;52.266;10.542;2022-08-20T12:57:53;12.57;;;6.05;;
73474;SDS011;61711;52.266;10.542;2022-08-20T13:00:25;7.25;;;4.13;;
73474;SDS011;61711;52.266;10.542;2022-08-20T13:02:53;3.70;;;2.70;;
73474;SDS011;61711;52.266;10.542;2022-08-20T13:05:20;2.47;;;2.00;;
73474;SDS011;61711;52.266;10.542;2022-08-20T13:07:46;3.25;;;1.80;;
73474;SDS011;61711;52.266;10.542;2022-08-20T13:10:15;1.50;;;1.40;;
73474;SDS011;61711;52.266;10.542;2022-08-20T13:12:42;2.13;;;1.50;;
73474;SDS011;61711;52.266;10.542;2022-08-20T13:15:08;1.55;;;0.90;;
73474;SDS011;61711;52.266;10.542;2022-08-20T13:17:35;1.90;;;1.00;;
73474;SDS011;61711;52.266;10.542;2022-08-20T13:20:01;6.03;;;4.38;;
73474;SDS011;61711;52.266;10.542;2022-08-20T13:22:27;2.28;;;1.80;;
73474;SDS011;61711;52.266;10.542;2022-08-20T13:24:53;2.90;;;1.40;;
73474;SDS011;61711;52.266;10.542;2022-08-20T13:27:19;1.90;;;1.33;;
73474;SDS011;61711;52.266;10.542;2022-08-20T13:29:47;1.38;;;1.20;;
73474;SDS011;61711;52.266;10.542;2022-08-20T13:32:13;1.70;;;1.55;;
73474;SDS011;61711;52.266;10.542;2022-08-20T13:34:40;1.40;;;1.27;;
73474;SDS011;61711;52.266;10.542;2022-08-20T13:37:13;1.40;;;1.15;;
73474;SDS011;61711;52.266;10.542;2022-08-20T13:39:39;1.95;;;1.10;;
73474;SDS011;61711;52.266;10.542;2022-08-20T13:42:06;1.20;;;1.10;;
73474;SDS011;61711;52.266;10.542;2022-08-20T13:44:32;1.27;;;1.17;;
73474;SDS011;61711;52.266;10.542;2022-08-20T13:46:58;1.33;;;1.23;;
73474;SDS011;61711;52.266;10.542;2022-08-20T13:49:24;3.15;;;1.67;;
73474;SDS011;61711;52.266;10.542;2022-08-20T13:51:50;2.40;;;1.80;;
73474;SDS011;61711;52.266;10.542;2022-08-20T13:54:17;1.83;;;1.73;;
73474;SDS011;61711;52.266;10.542;2022-08-20T13:56:43;2.08;;;1.60;;
73474;SDS011;61711;52.266;10.542;2022-08-20T13:59:08;3.85;;;1.63;;
73474;SDS011;61711;52.266;10.542;2022-08-20T14:01:34;1.55;;;1.40;;
73474;SDS011;61711;52.266;10.542;2022-08-20T14:04:00;1.88;;;1.38;;
73474;SDS011;61711;52.266;10.542;2022-08-20T14:06:27;1.80;;;1.30;;
73474;SDS011;61711;52.266;10.542;2022-08-20T14:08:53;1.40;;;1.23;;
73474;SDS011;61711;52.266;10.542;2022-08-20T14:11:19;1.67;;;1.20;;
73474;SDS011;61711;52.266;10.542;2022-08-20T14:13:45;2.40;;;1.60;;
73474;SDS011;61711;52.266;10.542;2022-08-20T14:16:11;1.33;;;1.20;;